createdAt,value
2023-02-19T00:01:42.411Z,3.10
2023-02-19T00:04:46.334Z,3.13
2023-02-19T00:07:50.395Z,3.16
2023-02-19T00:10:54.379Z,3.20
2023-02-19T00:13:59.855Z,3.23
2023-02-19T00:17:03.895Z,3.27
2023-02-19T00:20:08.884Z,3.32
2023-02-19T00:23:12.913Z,3.39
2023-02-19T00:26:18.779Z,3.45
2023-02-19T00:29:24.825Z,3.49
2023-02-19T00:32:29.063Z,3.49
2023-02-19T00:35:36.492Z,3.50
2023-02-19T00:38:42.061Z,3.54
2023-02-19T00:41:47.149Z,3.60
2023-02-19T00:44:51.165Z,3.68
2023-02-19T00:47:57.406Z,3.71
2023-02-19T00:51:02.014Z,3.73
2023-02-19T00:54:06.666Z,3.74
2023-02-19T00:57:10.720Z,3.72
2023-02-19T01:00:14.826Z,3.72
2023-02-19T01:03:18.842Z,3.75
2023-02-19T01:06:23.268Z,3.79
2023-02-19T01:09:27.299Z,3.84
2023-02-19T01:12:31.643Z,3.84
2023-02-19T01:15:36.053Z,3.82
2023-02-19T01:18:40.585Z,3.79
2023-02-19T01:21:44.575Z,3.82
2023-02-19T01:24:48.585Z,3.79
2023-02-19T01:27:52.601Z,3.81
2023-02-19T01:31:01.730Z,3.81
2023-02-19T01:34:06.578Z,3.86
2023-02-19T01:37:12.224Z,3.93
2023-02-19T01:40:17.575Z,3.99
2023-02-19T01:43:21.598Z,4.00
2023-02-19T01:46:27.899Z,4.00
2023-02-19T01:49:37.608Z,4.02
2023-02-19T01:52:41.782Z,4.00
2023-02-19T01:55:48.268Z,3.99
2023-02-19T01:58:53.423Z,3.96
2023-02-19T02:01:58.060Z,3.95
2023-02-19T02:05:03.319Z,3.93
2023-02-19T02:08:26.181Z,3.94
2023-02-19T02:11:30.759Z,3.97
2023-02-19T02:14:38.105Z,4.01
2023-02-19T02:18:06.803Z,4.05
2023-02-19T02:21:46.046Z,4.06
2023-02-19T02:25:22.312Z,4.06
2023-02-19T02:28:57.975Z,4.05
2023-02-19T02:32:24.518Z,3.97
2023-02-19T02:35:36.607Z,3.91
2023-02-19T02:38:44.942Z,3.88
2023-02-19T02:42:15.368Z,3.87
2023-02-19T02:45:34.977Z,3.89
2023-02-19T02:48:54.107Z,3.93
2023-02-19T02:52:20.871Z,3.95
2023-02-19T02:55:28.632Z,3.98
2023-02-19T02:58:34.835Z,3.97
2023-02-19T03:02:14.593Z,3.97
2023-02-19T03:05:43.405Z,3.95
2023-02-19T03:09:06.351Z,3.92
2023-02-19T03:12:35.136Z,3.90
2023-02-19T03:16:06.731Z,3.87
2023-02-19T03:19:19.325Z,3.87
2023-02-19T03:22:33.582Z,3.89
2023-02-19T03:25:58.396Z,3.88
2023-02-19T03:29:23.303Z,3.87
2023-02-19T03:32:52.095Z,3.87
2023-02-19T03:36:00.677Z,3.86
2023-02-19T03:39:11.035Z,3.80
2023-02-19T03:42:24.103Z,3.75
2023-02-19T03:45:47.287Z,3.71
2023-02-19T03:49:00.667Z,3.70
2023-02-19T03:52:17.108Z,3.69
2023-02-19T03:55:48.417Z,3.75
2023-02-19T03:59:10.890Z,3.77
2023-02-19T04:02:24.623Z,3.77
2023-02-19T04:05:35.792Z,3.78
2023-02-19T04:08:44.254Z,3.76
2023-02-19T04:11:50.749Z,3.75
2023-02-19T04:15:04.482Z,3.72
2023-02-19T04:18:14.540Z,3.70
2023-02-19T04:21:21.263Z,3.68
2023-02-19T04:24:35.682Z,3.70
2023-02-19T04:27:40.302Z,3.73
2023-02-19T04:30:44.375Z,3.77
2023-02-19T04:33:48.542Z,3.79
2023-02-19T04:36:52.478Z,3.76
2023-02-19T04:39:56.473Z,3.74
2023-02-19T04:43:00.405Z,3.73
2023-02-19T04:46:04.556Z,3.72
2023-02-19T04:49:08.581Z,3.71
2023-02-19T04:52:13.246Z,3.70
2023-02-19T04:55:17.775Z,3.69
2023-02-19T04:58:22.213Z,3.66
2023-02-19T05:01:26.682Z,3.64
2023-02-19T05:04:30.890Z,3.65
2023-02-19T05:07:34.851Z,3.67
2023-02-19T05:10:38.801Z,3.69
2023-02-19T05:13:42.826Z,3.70
2023-02-19T05:16:46.911Z,3.71
2023-02-19T05:19:50.869Z,3.71
2023-02-19T05:22:54.940Z,3.69
2023-02-19T05:25:58.980Z,3.68
2023-02-19T05:29:03.391Z,3.66
2023-02-19T05:32:07.377Z,3.63
2023-02-19T05:35:11.311Z,3.64
2023-02-19T05:38:16.649Z,3.65
2023-02-19T05:41:26.615Z,3.68
2023-02-19T05:44:30.628Z,3.70
2023-02-19T05:47:34.624Z,3.71
2023-02-19T05:50:39.949Z,3.71
2023-02-19T05:53:51.082Z,3.70
2023-02-19T05:56:55.702Z,3.67
2023-02-19T05:59:59.534Z,3.64
2023-02-19T06:03:03.580Z,3.63
2023-02-19T06:06:08.387Z,3.61
2023-02-19T06:09:13.083Z,3.59
2023-02-19T06:12:17.012Z,3.59
2023-02-19T06:15:21.891Z,3.62
2023-02-19T06:18:25.856Z,3.67
2023-02-19T06:21:29.790Z,3.69
2023-02-19T06:24:34.363Z,3.70
2023-02-19T06:27:39.655Z,3.69
2023-02-19T06:30:43.666Z,3.66
2023-02-19T06:33:48.155Z,3.62
2023-02-19T06:36:52.782Z,3.59
2023-02-19T06:39:56.979Z,3.54
2023-02-19T06:43:00.964Z,3.54
2023-02-19T06:46:07.633Z,3.58
2023-02-19T06:49:11.658Z,3.63
2023-02-19T06:52:15.554Z,3.67
2023-02-19T06:55:19.474Z,3.71
2023-02-19T06:58:23.414Z,3.75
2023-02-19T07:01:29.137Z,3.77
2023-02-19T07:04:33.280Z,3.76
2023-02-19T07:07:37.281Z,3.75
2023-02-19T07:10:41.210Z,3.75
2023-02-19T07:13:46.103Z,3.76
2023-02-19T07:16:50.258Z,3.79
2023-02-19T07:19:54.265Z,3.85
2023-02-19T07:22:58.386Z,3.91
2023-02-19T07:26:02.717Z,3.96
2023-02-19T07:29:07.626Z,3.97
2023-02-19T07:32:11.742Z,3.96
2023-02-19T07:35:15.786Z,3.96
2023-02-19T07:38:22.060Z,3.94
2023-02-19T07:41:27.363Z,3.92
2023-02-19T07:44:33.649Z,3.95
2023-02-19T07:47:37.686Z,4.02
2023-02-19T07:50:41.901Z,4.09
2023-02-19T07:53:47.252Z,4.15
2023-02-19T07:56:51.167Z,4.17
2023-02-19T07:59:55.171Z,4.11
2023-02-19T08:03:02.309Z,4.11
2023-02-19T08:06:08.080Z,4.10
2023-02-19T08:09:12.027Z,4.12
2023-02-19T08:12:34.456Z,4.14
2023-02-19T08:15:38.389Z,4.19
2023-02-19T08:18:42.437Z,4.20
2023-02-19T08:21:46.415Z,4.24
2023-02-19T08:24:50.323Z,4.28
2023-02-19T08:27:54.249Z,4.31
2023-02-19T08:31:01.360Z,4.29
2023-02-19T08:34:05.362Z,4.29
2023-02-19T08:37:09.332Z,4.30
2023-02-19T08:40:13.407Z,4.30
2023-02-19T08:43:19.311Z,4.30
2023-02-19T08:46:23.324Z,4.32
2023-02-19T08:49:27.923Z,4.36
2023-02-19T08:52:31.937Z,4.40
2023-02-19T08:55:37.426Z,4.44
2023-02-19T08:58:42.435Z,4.50
2023-02-19T09:01:46.421Z,4.52
2023-02-19T09:04:50.612Z,4.52
2023-02-19T09:07:54.632Z,4.54
2023-02-19T09:11:04.487Z,4.57
2023-02-19T09:14:08.537Z,4.61
2023-02-19T09:17:12.940Z,4.63
2023-02-19T09:20:17.068Z,4.68
2023-02-19T09:23:21.075Z,4.71
2023-02-19T09:26:25.498Z,4.73
2023-02-19T09:29:30.412Z,4.73
2023-02-19T09:32:34.456Z,4.74
2023-02-19T09:35:40.195Z,4.74
2023-02-19T09:38:44.744Z,4.75
2023-02-19T09:41:58.068Z,4.80
2023-02-19T09:45:04.691Z,4.80
2023-02-19T09:48:12.034Z,4.81
2023-02-19T09:51:17.895Z,4.79
2023-02-19T09:54:26.215Z,4.79
2023-02-19T09:57:33.454Z,4.79
2023-02-19T10:00:37.943Z,4.81
2023-02-19T10:03:47.113Z,4.87
2023-02-19T10:06:52.334Z,4.95
2023-02-19T10:10:01.910Z,4.99
2023-02-19T10:13:22.049Z,4.96
2023-02-19T10:16:28.175Z,4.93
2023-02-19T10:19:33.611Z,4.91
2023-02-19T10:22:38.392Z,4.91
2023-02-19T10:25:49.299Z,4.87
2023-02-19T10:28:55.492Z,4.81
2023-02-19T10:32:23.962Z,4.81
2023-02-19T10:35:30.001Z,4.84
2023-02-19T10:38:37.509Z,4.87
2023-02-19T10:41:44.132Z,4.93
2023-02-19T10:45:02.009Z,4.98
2023-02-19T10:48:07.653Z,5.03
2023-02-19T10:51:13.611Z,5.10
2023-02-19T10:54:26.851Z,5.20
2023-02-19T10:57:32.853Z,5.28
2023-02-19T11:00:37.047Z,5.35
2023-02-19T11:03:41.749Z,5.40
2023-02-19T11:06:46.922Z,5.39
2023-02-19T11:09:53.839Z,5.39
2023-02-19T11:13:02.545Z,5.33
2023-02-19T11:16:06.884Z,5.31
2023-02-19T11:19:27.457Z,5.30
2023-02-19T11:22:35.760Z,5.31
2023-02-19T11:25:46.853Z,5.32
2023-02-19T11:28:59.456Z,5.32
2023-02-19T11:32:24.489Z,5.35
2023-02-19T11:35:29.011Z,5.37
2023-02-19T11:38:33.022Z,5.39
2023-02-19T11:41:55.139Z,5.41
2023-02-19T11:45:18.744Z,5.41
2023-02-19T11:48:37.986Z,5.36
2023-02-19T11:52:00.365Z,5.31
2023-02-19T11:55:13.593Z,5.29
2023-02-19T11:58:29.484Z,5.27
2023-02-19T12:01:45.803Z,5.31
2023-02-19T12:04:49.722Z,5.40
2023-02-19T12:08:14.356Z,5.45
2023-02-19T12:11:31.218Z,5.46
2023-02-19T12:15:14.374Z,5.44
2023-02-19T12:18:43.870Z,5.43
2023-02-19T12:22:32.439Z,5.38
2023-02-19T12:25:49.269Z,5.34
2023-02-19T12:29:22.424Z,5.33
2023-02-19T12:32:52.724Z,5.33
2023-02-19T12:36:12.903Z,5.38
2023-02-19T12:39:32.753Z,5.42
2023-02-19T12:43:10.665Z,5.45
2023-02-19T12:46:21.680Z,5.44
2023-02-19T12:49:31.905Z,5.39
2023-02-19T12:52:41.659Z,5.32
2023-02-19T12:55:47.407Z,5.30
2023-02-19T12:58:58.209Z,5.40
2023-02-19T13:02:41.022Z,5.50
2023-02-19T13:05:55.993Z,5.58
2023-02-19T13:09:07.895Z,5.67
2023-02-19T13:12:18.156Z,5.78
2023-02-19T13:15:27.939Z,5.92
2023-02-19T13:18:56.081Z,5.99
2023-02-19T13:22:52.020Z,5.98
2023-02-19T13:26:26.449Z,5.97
2023-02-19T13:29:42.224Z,5.97
2023-02-19T13:32:52.727Z,5.95
2023-02-19T13:36:08.504Z,5.91
2023-02-19T13:39:17.296Z,5.85
2023-02-19T13:42:33.212Z,5.79
2023-02-19T13:45:42.254Z,5.74
2023-02-19T13:48:46.346Z,5.71
2023-02-19T13:51:55.826Z,5.68
2023-02-19T13:55:46.935Z,5.61
2023-02-19T13:58:58.354Z,5.56
2023-02-19T14:02:02.746Z,5.53
2023-02-19T14:05:10.385Z,5.49
2023-02-19T14:09:06.591Z,5.46
2023-02-19T14:12:10.606Z,5.40
2023-02-19T14:15:44.382Z,5.35
2023-02-19T14:18:50.474Z,5.34
2023-02-19T14:21:54.703Z,5.32
2023-02-19T14:24:59.523Z,5.30
2023-02-19T14:28:06.071Z,5.27
2023-02-19T14:31:19.369Z,5.25
2023-02-19T14:34:27.145Z,5.22
2023-02-19T14:37:31.365Z,5.21
2023-02-19T14:40:43.548Z,5.23
2023-02-19T14:43:50.872Z,5.25
2023-02-19T14:47:04.522Z,5.26
2023-02-19T14:50:16.389Z,5.28
2023-02-19T14:53:23.929Z,5.31
2023-02-19T14:56:34.767Z,5.35
2023-02-19T14:59:38.797Z,5.38
2023-02-19T15:02:43.518Z,5.38
2023-02-19T15:05:49.287Z,5.37
2023-02-19T15:08:59.440Z,5.33
2023-02-19T15:12:04.376Z,5.31
2023-02-19T15:15:09.076Z,5.28
2023-02-19T15:18:21.427Z,5.28
2023-02-19T15:21:29.035Z,5.27
2023-02-19T15:24:36.235Z,5.26
2023-02-19T15:27:40.172Z,5.22
2023-02-19T15:30:44.125Z,5.14
2023-02-19T15:33:53.072Z,5.09
2023-02-19T15:37:02.952Z,5.04
2023-02-19T15:40:08.489Z,5.00
2023-02-19T15:43:40.000Z,4.96
2023-02-19T15:46:45.184Z,4.91
2023-02-19T15:50:00.698Z,4.88
2023-02-19T15:53:12.064Z,4.83
2023-02-19T15:56:29.600Z,4.78
2023-02-19T15:59:42.219Z,4.74
2023-02-19T16:02:46.718Z,4.70
2023-02-19T16:06:00.485Z,4.64
2023-02-19T16:09:05.983Z,4.60
2023-02-19T16:12:24.986Z,4.58
2023-02-19T16:15:31.683Z,4.52
2023-02-19T16:18:36.010Z,4.49
2023-02-19T16:21:43.755Z,4.47
2023-02-19T16:24:51.167Z,4.46
2023-02-19T16:27:55.991Z,4.45
2023-02-19T16:31:09.022Z,4.44
2023-02-19T16:34:19.267Z,4.43
2023-02-19T16:37:57.931Z,4.41
2023-02-19T16:41:11.895Z,4.39
2023-02-19T16:44:25.240Z,4.36
2023-02-19T16:47:34.585Z,4.35
2023-02-19T16:50:41.499Z,4.35
2023-02-19T16:53:45.480Z,4.34
2023-02-19T16:56:49.496Z,4.33
2023-02-19T16:59:53.500Z,4.32
2023-02-19T17:03:03.160Z,4.32
2023-02-19T17:06:08.051Z,4.29
2023-02-19T17:09:12.624Z,4.29
2023-02-19T17:12:17.459Z,4.29
2023-02-19T17:15:22.784Z,4.29
2023-02-19T17:18:27.119Z,4.29
2023-02-19T17:21:33.594Z,4.29
2023-02-19T17:24:37.719Z,4.27
2023-02-19T17:27:41.735Z,4.25
2023-02-19T17:30:45.705Z,4.23
2023-02-19T17:33:50.697Z,4.21
2023-02-19T17:36:54.770Z,4.19
2023-02-19T17:39:58.821Z,4.16
2023-02-19T17:43:03.557Z,4.13
2023-02-19T17:46:07.503Z,4.12
2023-02-19T17:49:13.215Z,4.08
2023-02-19T17:52:19.388Z,4.02
2023-02-19T17:55:24.348Z,3.99
2023-02-19T17:58:28.342Z,3.92
2023-02-19T18:01:32.390Z,3.87
2023-02-19T18:04:37.236Z,3.82
2023-02-19T18:07:43.556Z,3.75
2023-02-19T18:10:47.584Z,3.70
2023-02-19T18:13:52.119Z,3.65
2023-02-19T18:16:56.136Z,3.59
2023-02-19T18:20:00.440Z,3.55
2023-02-19T18:23:04.563Z,3.50
2023-02-19T18:26:10.521Z,3.42
2023-02-19T18:29:14.539Z,3.35
2023-02-19T18:32:20.055Z,3.29
2023-02-19T18:35:24.110Z,3.23
2023-02-19T18:38:28.448Z,3.20
2023-02-19T18:41:32.400Z,3.15
2023-02-19T18:44:36.976Z,3.11
2023-02-19T18:47:40.955Z,3.06
2023-02-19T18:50:45.008Z,3.03
2023-02-19T18:53:49.803Z,3.00
2023-02-19T18:56:53.973Z,2.95
2023-02-19T18:59:57.989Z,2.92
2023-02-19T19:03:02.098Z,2.88
2023-02-19T19:06:06.522Z,2.83
2023-02-19T19:09:10.545Z,2.80
2023-02-19T19:12:15.292Z,2.77
2023-02-19T19:15:19.851Z,2.73
2023-02-19T19:18:25.270Z,2.67
2023-02-19T19:21:29.472Z,2.63
2023-02-19T19:24:33.475Z,2.59
2023-02-19T19:27:37.508Z,2.56
2023-02-19T19:30:41.599Z,2.52
2023-02-19T19:33:48.193Z,2.48
2023-02-19T19:36:52.208Z,2.45
2023-02-19T19:39:56.629Z,2.42
2023-02-19T19:43:00.610Z,2.41
2023-02-19T19:46:04.783Z,2.39
2023-02-19T19:49:08.882Z,2.38
2023-02-19T19:52:13.161Z,2.36
2023-02-19T19:55:17.425Z,2.32
2023-02-19T19:58:24.725Z,2.30
2023-02-19T20:01:28.763Z,2.29
2023-02-19T20:04:33.161Z,2.26
2023-02-19T20:07:37.279Z,2.25
2023-02-19T20:10:41.299Z,2.21
2023-02-19T20:13:45.513Z,2.17
2023-02-19T20:16:50.755Z,2.14
2023-02-19T20:19:54.751Z,2.11
2023-02-19T20:22:58.787Z,2.08
2023-02-19T20:26:05.373Z,2.05
2023-02-19T20:29:10.502Z,2.03
2023-02-19T20:32:18.558Z,2.00
2023-02-19T20:35:26.491Z,1.98
2023-02-19T20:38:30.614Z,1.96
2023-02-19T20:41:34.661Z,1.92
2023-02-19T20:44:38.687Z,1.90
2023-02-19T20:47:42.689Z,1.86
2023-02-19T20:50:47.013Z,1.82
2023-02-19T20:53:51.147Z,1.77
2023-02-19T20:56:58.015Z,1.75
2023-02-19T21:00:02.131Z,1.70
2023-02-19T21:03:09.184Z,1.66
2023-02-19T21:06:13.821Z,1.63
2023-02-19T21:09:19.304Z,1.60
2023-02-19T21:12:23.285Z,1.56
2023-02-19T21:15:27.314Z,1.53
2023-02-19T21:18:31.349Z,1.49
2023-02-19T21:21:35.503Z,1.46
2023-02-19T21:24:41.559Z,1.44
2023-02-19T21:27:45.547Z,1.41
2023-02-19T21:30:49.839Z,1.40
2023-02-19T21:33:53.750Z,1.37
2023-02-19T21:36:57.894Z,1.35
2023-02-19T21:40:02.126Z,1.33
2023-02-19T21:43:06.346Z,1.32
2023-02-19T21:46:18.115Z,1.29
2023-02-19T21:49:22.157Z,1.27
2023-02-19T21:52:27.204Z,1.26
2023-02-19T21:55:31.927Z,1.25
2023-02-19T21:58:36.432Z,1.25
2023-02-19T22:01:42.211Z,1.24
2023-02-19T22:04:46.874Z,1.23
2023-02-19T22:07:52.695Z,1.21
2023-02-19T22:10:56.598Z,1.18
2023-02-19T22:14:00.724Z,1.15
2023-02-19T22:17:04.748Z,1.14
2023-02-19T22:20:08.868Z,1.12
2023-02-19T22:23:12.976Z,1.14
2023-02-19T22:26:19.350Z,1.17
2023-02-19T22:29:23.984Z,1.22
2023-02-19T22:32:27.923Z,1.27
2023-02-19T22:35:32.317Z,1.29
2023-02-19T22:38:36.476Z,1.30
2023-02-19T22:41:43.938Z,1.30
2023-02-19T22:44:47.953Z,1.29
2023-02-19T22:47:54.200Z,1.29
2023-02-19T22:50:59.052Z,1.28
2023-02-19T22:54:03.167Z,1.26
2023-02-19T22:57:07.210Z,1.24
2023-02-19T23:00:18.748Z,1.24
2023-02-19T23:03:22.670Z,1.22
2023-02-19T23:06:29.279Z,1.21
2023-02-19T23:09:33.288Z,1.24
2023-02-19T23:12:38.203Z,1.29
2023-02-19T23:15:42.106Z,1.34
2023-02-19T23:18:46.750Z,1.41
2023-02-19T23:21:50.796Z,1.46
2023-02-19T23:24:54.767Z,1.52
2023-02-19T23:27:58.816Z,1.57
2023-02-19T23:31:02.860Z,1.62
2023-02-19T23:34:08.177Z,1.64
2023-02-19T23:37:12.194Z,1.66
2023-02-19T23:40:16.313Z,1.68
2023-02-19T23:43:21.158Z,1.69
2023-02-19T23:46:25.699Z,1.72
2023-02-19T23:49:29.784Z,1.74
2023-02-19T23:52:33.800Z,1.75
2023-02-19T23:55:37.817Z,1.76
2023-02-19T23:58:41.831Z,1.77
